Flight Track Log - Related Links

Times and Time Zones

All times are in EDT time to prevent confusion due to time zone crossing. See the SKW5186 flight status page for this flight to view local times or setup timezone preferences in your user account.

Time Position Orientation Groundspeed Altitude Reporting Facility
EDT Latitude Longitude Course Direction KTS MPH feet Rate Location/Type
01:51PM 29.9617 -95.3436 111° Southeast 150 173 700  Level Houston Center
01:52PM 29.9475 -95.3019 111° Southeast 196 226 1,900 1,483 Climbing Houston Center
01:53PM 29.9400 -95.2631 103° East 223 257 2,900 1,770 Climbing Houston Center
01:53PM 29.9364 -95.2283 97° East 268 308 3,700 2,000 Climbing Houston Center
01:54PM 29.9383 -95.1769 87° East 265 305 5,000 1,475 Climbing Houston Center
01:54PM 29.9381 -95.1342 90° East 282 325 5,200 871 Climbing Houston Center
01:55PM 29.9397 -95.0856 88° East 279 321 5,900 2,343 Climbing Houston Center
01:56PM 29.9475 -94.9744 85° East 286 329 9,300 2,710 Climbing Houston Center
01:57PM 29.9539 -94.8808 85° East 289 333 11,500 1,645 Climbing Houston Center
01:58PM 29.9619 -94.7775 85° East 319 367 12,700 1,296 Climbing Houston Center
01:59PM 29.9706 -94.6647 85° East 346 398 14,200 1,344 Climbing Houston Center
02:00PM 29.9783 -94.5506 85° East 352 405 15,500 1,258 Climbing Houston Center
02:01PM 29.9878 -94.4261 85° East 364 419 16,800 1,065 Climbing Houston Center
02:02PM 29.9956 -94.3058 86° East 374 430 17,700 871 Climbing Houston Center
02:03PM 30.0100 -94.1844 82° East 380 437 18,600 1,016 Climbing Houston Center
02:04PM 30.0286 -94.0364 82° East 387 445 19,800 919 Climbing Houston Center
02:05PM 30.0431 -93.9122 82° East 390 449 20,500 677 Climbing Houston Center
02:06PM 30.0594 -93.7858 81° East 398 458 21,200 770 Climbing Houston Center
02:08PM 30.0773 -93.6228 83° East  Level FlightAware Approximate
02:08PM 30.0942 -93.5039 83° East 407 468 22,900  Level Houston Center
02:09PM 30.1100 -93.3744 82° East 408 470 23,400 484 Climbing Houston Center
02:10PM 30.1253 -93.2411 82° East 419 482 23,900 290 Climbing Houston Center
02:11PM 30.1422 -93.1056 82° East 425 489 24,000 48 Climbing Houston Center
02:12PM 30.1692 -92.9669 77° East 440 506 24,000 -484 Level Houston Center
02:13PM 30.2019 -92.7956 77° East 454 522 23,000 -1,210 Descending Houston Center
02:14PM 30.2297 -92.6542 77° East 454 522 21,500 -1,548 Descending Houston Center
02:15PM 30.2564 -92.5142 78° East 451 519 19,800 -1,248 Descending Houston Center
02:16PM 30.2831 -92.3775 77° East 443 510 18,900 -624 Descending Houston Center
02:18PM 30.3117 -92.2328 77° East 427 491 18,500 -1,065 Descending Houston Center
02:19PM 30.3364 -92.1008 78° East 425 489 16,700 -1,839 Descending Houston Center
02:20PM 30.3600 -91.9736 78° East 411 473 14,700 -1,935 Descending Houston Center
02:21PM 30.3819 -91.8492 78° East 401 461 12,700 -1,776 Descending Houston Center
02:22PM 30.4039 -91.7114 80° East 369 425 11,000 -1,296 Descending Houston Center
02:23PM 30.4386 -91.6119 68° East 329 379 10,000 -1,355 Descending Houston Center
02:24PM 30.4706 -91.5247 67° East 302 348 8,200 -1,839 Descending Houston Center
02:25PM 30.5147 -91.4447 57° Northeast 299 344 6,200 -1,887 Descending Houston Center
02:26PM 30.5661 -91.3744 50° Northeast 292 336 4,300 -1,210 Descending Houston Center
02:27PM 30.5822 -91.2628 80° East 294 338 3,700 -581 Descending Houston Center

Login

Don't have an account? Register now (free) for customized features, flight alerts, and more!